Time;durP1;ratioP1;P1;durP2;ratioP2;P2;SDS_P1;SDS_P2;PMS_P1;PMS_P2;Temp;Humidity;BMP_temperature;BMP_pressure;BME280_temperature;BME280_humidity;BME280_pressure;Samples;Min_cycle;Max_cycle;Signal;HPM_P1;HPM_P2
2023/09/07 00:01:16;;;;;;;4.80;2.87;;;;;;;;;;5054218;28;20167;-64
2023/09/07 00:03:42;;;;;;;3.43;2.40;;;;;;;;;;5032178;28;20372;-65
2023/09/07 00:06:09;;;;;;;3.10;1.90;;;;;;;;;;5050400;28;20031;-64
2023/09/07 00:08:36;;;;;;;3.13;1.83;;;;;;;;;;5050367;28;20486;-63
2023/09/07 00:11:06;;;;;;;5.40;2.53;;;;;;;;;;5051130;28;20063;-64
2023/09/07 00:13:33;;;;;;;3.23;1.80;;;;;;;;;;5054875;28;20094;-64
2023/09/07 00:16:01;;;;;;;5.87;2.80;;;;;;;;;;5054813;28;20044;-63
2023/09/07 00:18:28;;;;;;;3.50;2.43;;;;;;;;;;5055239;28;20467;-64
2023/09/07 00:20:54;;;;;;;3.97;2.73;;;;;;;;;;5055143;28;20538;-64
2023/09/07 00:23:21;;;;;;;3.43;2.20;;;;;;;;;;5053707;28;20048;-64
2023/09/07 00:25:48;;;;;;;2.77;2.17;;;;;;;;;;5050011;28;20046;-64
2023/09/07 00:28:15;;;;;;;2.53;1.87;;;;;;;;;;5049203;28;20041;-65
2023/09/07 00:30:42;;;;;;;4.03;2.50;;;;;;;;;;5049835;28;20045;-64
2023/09/07 00:33:08;;;;;;;6.87;2.90;;;;;;;;;;5050597;28;20101;-64
2023/09/07 00:35:35;;;;;;;4.83;2.80;;;;;;;;;;5054979;28;20021;-64
2023/09/07 00:38:02;;;;;;;5.63;2.67;;;;;;;;;;5054345;28;20024;-64
2023/09/07 00:40:29;;;;;;;2.57;1.97;;;;;;;;;;5054850;28;20138;-64
2023/09/07 00:42:56;;;;;;;4.77;2.67;;;;;;;;;;5054867;28;20025;-64
2023/09/07 00:45:23;;;;;;;5.60;3.33;;;;;;;;;;5053370;28;20031;-64
2023/09/07 00:47:50;;;;;;;2.97;2.40;;;;;;;;;;5049264;28;20037;-64
2023/09/07 00:50:16;;;;;;;8.23;3.30;;;;;;;;;;5049545;28;20056;-63
2023/09/07 00:52:43;;;;;;;3.80;2.87;;;;;;;;;;5048844;28;20071;-64
2023/09/07 00:55:11;;;;;;;2.93;2.40;;;;;;;;;;5049628;28;20021;-64
2023/09/07 00:57:39;;;;;;;7.27;3.20;;;;;;;;;;5036323;28;20116;-64
2023/09/07 01:00:07;;;;;;;2.23;1.63;;;;;;;;;;5053746;28;20070;-64
2023/09/07 01:02:34;;;;;;;3.03;2.27;;;;;;;;;;5054108;28;20029;-64
2023/09/07 01:05:06;;;;;;;3.97;3.03;;;;;;;;;;5054300;28;20404;-64
2023/09/07 01:07:32;;;;;;;5.90;2.43;;;;;;;;;;5053005;28;20032;-64
2023/09/07 01:10:01;;;;;;;3.90;2.60;;;;;;;;;;5049138;28;20086;-64
2023/09/07 01:12:28;;;;;;;3.47;2.47;;;;;;;;;;5048687;28;20075;-64
2023/09/07 01:14:55;;;;;;;17.13;2.30;;;;;;;;;;5048843;28;20156;-64
2023/09/07 01:17:22;;;;;;;2.43;2.13;;;;;;;;;;5049752;28;20017;-64
2023/09/07 01:19:50;;;;;;;4.00;2.90;;;;;;;;;;5036042;28;20471;-64
2023/09/07 01:22:22;;;;;;;3.67;2.40;;;;;;;;;;5054038;28;20407;-64
2023/09/07 01:24:49;;;;;;;3.00;2.33;;;;;;;;;;5053814;28;20024;-64
2023/09/07 01:27:16;;;;;;;4.40;2.93;;;;;;;;;;5053483;28;20033;-64
2023/09/07 01:29:43;;;;;;;3.83;2.53;;;;;;;;;;5052660;28;20022;-64
2023/09/07 01:32:13;;;;;;;2.50;2.07;;;;;;;;;;5048822;28;20106;-64
2023/09/07 01:34:41;;;;;;;4.53;2.30;;;;;;;;;;5048990;28;20021;-65
2023/09/07 01:37:08;;;;;;;2.00;1.70;;;;;;;;;;5048492;28;20025;-64
2023/09/07 01:39:34;;;;;;;5.23;2.40;;;;;;;;;;5049082;28;20444;-64
2023/09/07 01:42:01;;;;;;;3.30;2.70;;;;;;;;;;5053099;28;20029;-64
2023/09/07 01:44:29;;;;;;;4.93;3.20;;;;;;;;;;5053655;28;20021;-64
2023/09/07 01:46:56;;;;;;;2.70;1.77;;;;;;;;;;5035292;28;20060;-64
2023/09/07 01:49:23;;;;;;;3.83;2.37;;;;;;;;;;5053228;28;20079;-64
2023/09/07 01:51:52;;;;;;;3.63;2.43;;;;;;;;;;5052220;28;20522;-64
2023/09/07 01:54:19;;;;;;;4.37;2.87;;;;;;;;;;5048317;28;20025;-64
2023/09/07 01:56:45;;;;;;;2.97;2.53;;;;;;;;;;5047811;28;20029;-64
2023/09/07 01:59:12;;;;;;;6.33;3.37;;;;;;;;;;5048061;28;20041;-64
2023/09/07 02:01:40;;;;;;;3.43;2.23;;;;;;;;;;5048396;28;20029;-64
2023/09/07 02:04:06;;;;;;;3.93;2.70;;;;;;;;;;5052133;28;20486;-64
2023/09/07 02:06:33;;;;;;;7.80;3.87;;;;;;;;;;5052990;28;20025;-64
2023/09/07 02:09:00;;;;;;;3.17;2.30;;;;;;;;;;5053007;28;20021;-64
2023/09/07 02:11:26;;;;;;;3.60;2.80;;;;;;;;;;5052555;28;20021;-64
2023/09/07 02:13:53;;;;;;;3.30;2.33;;;;;;;;;;5052142;28;20029;-63
2023/09/07 02:16:20;;;;;;;2.83;2.13;;;;;;;;;;5047840;28;20103;-64
2023/09/07 02:18:50;;;;;;;2.43;2.07;;;;;;;;;;5047940;28;20017;-64
2023/09/07 02:21:16;;;;;;;6.90;3.43;;;;;;;;;;5047560;28;20033;-64
2023/09/07 02:23:43;;;;;;;3.10;2.13;;;;;;;;;;5048082;28;20059;-64
2023/09/07 02:26:10;;;;;;;3.60;2.53;;;;;;;;;;5052723;28;20036;-64
2023/09/07 02:28:36;;;;;;;3.17;2.57;;;;;;;;;;5052478;28;20120;-64
2023/09/07 02:31:04;;;;;;;2.97;2.20;;;;;;;;;;5052831;28;20443;-64
2023/09/07 02:33:31;;;;;;;3.60;2.77;;;;;;;;;;5052388;28;20040;-64
2023/09/07 02:35:58;;;;;;;4.30;2.80;;;;;;;;;;5051523;28;20017;-64
2023/09/07 02:38:25;;;;;;;4.30;3.03;;;;;;;;;;5047447;28;20353;-63
2023/09/07 02:40:52;;;;;;;4.77;3.00;;;;;;;;;;5047592;28;20487;-63
2023/09/07 02:43:19;;;;;;;4.23;2.93;;;;;;;;;;5047250;28;20127;-63
2023/09/07 02:45:46;;;;;;;4.57;3.57;;;;;;;;;;5047491;28;20047;-64
2023/09/07 02:48:12;;;;;;;7.13;2.93;;;;;;;;;;5051836;28;20051;-65
2023/09/07 02:50:39;;;;;;;3.70;2.57;;;;;;;;;;5052507;28;20523;-63
2023/09/07 02:53:06;;;;;;;2.80;2.10;;;;;;;;;;5034563;28;20162;-64
2023/09/07 02:55:34;;;;;;;4.30;2.60;;;;;;;;;;5051532;28;20375;-64
2023/09/07 02:58:03;;;;;;;3.97;3.17;;;;;;;;;;5050932;28;20048;-63
2023/09/07 03:00:30;;;;;;;2.53;1.87;;;;;;;;;;5047423;28;20370;-63
2023/09/07 03:02:57;;;;;;;5.07;2.87;;;;;;;;;;5047330;28;20083;-63
2023/09/07 03:05:23;;;;;;;3.03;2.03;;;;;;;;;;5046976;28;20027;-63
2023/09/07 03:07:50;;;;;;;5.73;2.80;;;;;;;;;;5047215;28;20040;-63
2023/09/07 03:10:17;;;;;;;3.43;2.57;;;;;;;;;;5052197;28;20029;-63
2023/09/07 03:12:43;;;;;;;5.03;2.97;;;;;;;;;;5051679;28;20045;-64
2023/09/07 03:15:10;;;;;;;4.13;2.53;;;;;;;;;;5053525;28;20139;-64
2023/09/07 03:17:37;;;;;;;2.80;2.00;;;;;;;;;;5056179;28;20082;-64
2023/09/07 03:20:16;;;;;;;3.27;2.23;;;;;;;;;;5055781;28;20029;-63
2023/09/07 03:22:44;;;;;;;2.67;1.83;;;;;;;;;;5051074;28;20531;-63
2023/09/07 03:25:11;;;;;;;3.17;1.93;;;;;;;;;;5050867;28;20468;-63
2023/09/07 03:27:38;;;;;;;5.83;3.77;;;;;;;;;;5050842;28;20037;-63
2023/09/07 03:30:05;;;;;;;2.83;2.30;;;;;;;;;;5051326;28;20021;-63
2023/09/07 03:32:33;;;;;;;5.50;2.50;;;;;;;;;;5055770;28;20025;-63
2023/09/07 03:35:09;;;;;;;4.87;2.90;;;;;;;;;;5056078;28;20394;-63
2023/09/07 03:37:39;;;;;;;7.53;2.50;;;;;;;;;;5056078;28;20032;-63
2023/09/07 03:40:06;;;;;;;3.03;2.50;;;;;;;;;;5056164;28;20029;-63
2023/09/07 03:42:33;;;;;;;3.23;2.17;;;;;;;;;;5054670;28;20029;-63
2023/09/07 03:45:00;;;;;;;3.20;2.13;;;;;;;;;;5050431;28;20032;-63
2023/09/07 03:47:29;;;;;;;8.60;3.03;;;;;;;;;;5050638;28;20032;-63
2023/09/07 03:50:00;;;;;;;11.53;3.67;;;;;;;;;;5050880;28;20036;-63
2023/09/07 03:52:27;;;;;;;4.10;3.03;;;;;;;;;;5051090;28;20025;-63
2023/09/07 03:54:57;;;;;;;8.80;3.17;;;;;;;;;;5055302;28;20489;-63
2023/09/07 03:57:24;;;;;;;4.13;2.67;;;;;;;;;;5055508;28;20025;-63
2023/09/07 03:59:51;;;;;;;5.37;2.43;;;;;;;;;;5055527;28;20111;-63
2023/09/07 04:02:18;;;;;;;3.73;2.70;;;;;;;;;;5055317;28;20484;-63
2023/09/07 04:04:49;;;;;;;3.67;2.47;;;;;;;;;;5054256;28;20025;-63
2023/09/07 04:07:16;;;;;;;2.93;2.13;;;;;;;;;;5050027;28;20024;-63
2023/09/07 04:09:43;;;;;;;10.90;2.30;;;;;;;;;;5050435;28;20044;-63
2023/09/07 04:12:10;;;;;;;2.80;1.90;;;;;;;;;;5050340;28;20067;-64
2023/09/07 04:14:37;;;;;;;9.83;3.73;;;;;;;;;;5051237;28;20028;-63
2023/09/07 04:17:04;;;;;;;6.37;3.47;;;;;;;;;;5055155;28;20024;-63
2023/09/07 04:19:31;;;;;;;4.13;3.07;;;;;;;;;;5054597;28;20029;-64
2023/09/07 04:22:01;;;;;;;3.90;2.30;;;;;;;;;;5055063;28;20021;-63
2023/09/07 04:24:27;;;;;;;3.40;2.47;;;;;;;;;;5055105;28;20021;-64
2023/09/07 04:26:54;;;;;;;3.20;2.23;;;;;;;;;;5052576;28;20025;-63
2023/09/07 04:29:21;;;;;;;3.63;2.10;;;;;;;;;;5049568;28;20438;-63
2023/09/07 04:31:47;;;;;;;5.60;2.23;;;;;;;;;;5049987;28;20426;-63
2023/09/07 04:34:14;;;;;;;2.23;1.70;;;;;;;;;;5049644;28;20027;-63
2023/09/07 04:36:41;;;;;;;11.27;3.23;;;;;;;;;;5050399;28;20021;-64
2023/09/07 04:39:07;;;;;;;7.50;2.50;;;;;;;;;;5054914;28;20090;-63
2023/09/07 04:41:34;;;;;;;4.03;2.53;;;;;;;;;;5054435;28;20025;-63
2023/09/07 04:44:01;;;;;;;4.70;2.33;;;;;;;;;;5054829;28;20024;-63
2023/09/07 04:46:28;;;;;;;2.83;1.90;;;;;;;;;;5054703;28;20021;-63
2023/09/07 04:48:55;;;;;;;4.03;2.40;;;;;;;;;;5053256;28;20041;-63
2023/09/07 04:51:22;;;;;;;5.50;2.80;;;;;;;;;;5049323;28;20032;-63
2023/09/07 04:53:48;;;;;;;3.97;2.80;;;;;;;;;;5049124;28;20033;-63
2023/09/07 04:56:16;;;;;;;3.23;2.10;;;;;;;;;;5049636;28;20068;-63
2023/09/07 04:58:43;;;;;;;4.97;2.73;;;;;;;;;;5049834;28;20494;-63
2023/09/07 05:01:13;;;;;;;4.30;2.63;;;;;;;;;;5054037;28;20055;-63
2023/09/07 05:03:40;;;;;;;6.13;3.07;;;;;;;;;;5054413;28;20021;-63
2023/09/07 05:06:06;;;;;;;2.33;1.73;;;;;;;;;;5053997;28;20025;-63
2023/09/07 05:08:33;;;;;;;6.80;2.40;;;;;;;;;;5054149;28;20037;-64
2023/09/07 05:11:01;;;;;;;4.80;2.67;;;;;;;;;;5052784;28;20489;-63
2023/09/07 05:13:28;;;;;;;3.73;2.30;;;;;;;;;;5049163;28;20030;-63
2023/09/07 05:15:55;;;;;;;4.33;3.10;;;;;;;;;;5049268;28;20020;-63
2023/09/07 05:18:22;;;;;;;3.90;2.60;;;;;;;;;;5049042;28;20021;-63
2023/09/07 05:20:51;;;;;;;2.63;2.30;;;;;;;;;;5049110;28;20085;-63
2023/09/07 05:23:19;;;;;;;5.77;3.00;;;;;;;;;;5053598;28;20534;-63
2023/09/07 05:25:50;;;;;;;4.93;2.83;;;;;;;;;;5054081;28;20024;-63
2023/09/07 05:28:17;;;;;;;3.03;2.33;;;;;;;;;;5053573;28;20029;-63
2023/09/07 05:30:43;;;;;;;6.63;3.17;;;;;;;;;;5053928;28;20017;-63
2023/09/07 05:33:11;;;;;;;2.67;1.97;;;;;;;;;;5052427;28;20393;-63
2023/09/07 05:35:37;;;;;;;4.77;2.07;;;;;;;;;;5048308;28;20036;-63
2023/09/07 05:38:05;;;;;;;3.00;2.20;;;;;;;;;;5048526;28;20029;-63
2023/09/07 05:40:39;;;;;;;2.50;1.87;;;;;;;;;;5048606;28;20032;-63
2023/09/07 05:43:06;;;;;;;5.80;2.80;;;;;;;;;;5049373;28;20036;-63
2023/09/07 05:45:39;;;;;;;2.67;1.93;;;;;;;;;;5053435;28;20040;-63
2023/09/07 05:48:06;;;;;;;2.60;1.80;;;;;;;;;;5053073;28;20047;-63
2023/09/07 05:50:34;;;;;;;3.13;2.13;;;;;;;;;;5053569;28;20044;-63
2023/09/07 05:53:01;;;;;;;4.77;2.27;;;;;;;;;;5035293;28;20376;-62
2023/09/07 05:55:27;;;;;;;2.57;1.87;;;;;;;;;;5051841;28;20013;-63
2023/09/07 05:57:58;;;;;;;2.67;1.97;;;;;;;;;;5047863;28;20069;-63
2023/09/07 06:00:25;;;;;;;4.03;2.53;;;;;;;;;;5047771;28;20037;-63
2023/09/07 06:02:52;;;;;;;4.07;2.40;;;;;;;;;;5048167;28;20028;-63
2023/09/07 06:05:18;;;;;;;15.43;2.10;;;;;;;;;;5049146;28;20025;-63
2023/09/07 06:07:45;;;;;;;8.83;2.33;;;;;;;;;;5053190;28;20427;-63
2023/09/07 06:10:12;;;;;;;3.53;2.40;;;;;;;;;;5052799;28;20025;-63
2023/09/07 06:12:39;;;;;;;4.67;2.30;;;;;;;;;;5052859;28;20051;-63
2023/09/07 06:15:05;;;;;;;2.27;1.60;;;;;;;;;;5052897;28;20029;-63
2023/09/07 06:17:32;;;;;;;3.40;2.10;;;;;;;;;;5033596;28;20484;-62
2023/09/07 06:19:59;;;;;;;7.00;2.53;;;;;;;;;;5047813;28;20370;-63
2023/09/07 06:22:25;;;;;;;9.57;3.20;;;;;;;;;;5047968;28;20017;-63
2023/09/07 06:24:52;;;;;;;3.33;2.37;;;;;;;;;;5047514;28;20028;-62
2023/09/07 06:27:19;;;;;;;7.57;2.73;;;;;;;;;;5048496;28;20033;-63
2023/09/07 06:29:46;;;;;;;13.33;3.47;;;;;;;;;;5052878;28;20056;-63
2023/09/07 06:32:12;;;;;;;2.73;2.03;;;;;;;;;;5052242;28;20056;-63
2023/09/07 06:34:40;;;;;;;3.47;2.23;;;;;;;;;;5052175;28;20047;-63
2023/09/07 06:37:06;;;;;;;8.57;2.93;;;;;;;;;;5034861;28;20027;-63
2023/09/07 06:39:33;;;;;;;3.27;2.50;;;;;;;;;;5051399;28;20028;-63
2023/09/07 06:42:00;;;;;;;5.07;2.23;;;;;;;;;;5047641;28;20100;-63
2023/09/07 06:44:26;;;;;;;3.53;2.43;;;;;;;;;;5047555;28;20415;-63
2023/09/07 06:46:53;;;;;;;2.30;1.80;;;;;;;;;;5046985;28;20029;-63
2023/09/07 06:49:20;;;;;;;4.83;2.80;;;;;;;;;;5047511;28;20033;-63
2023/09/07 06:51:46;;;;;;;4.13;2.27;;;;;;;;;;5052132;28;20408;-62
2023/09/07 06:54:13;;;;;;;3.33;1.80;;;;;;;;;;5052531;28;20025;-63
2023/09/07 06:56:40;;;;;;;6.87;2.57;;;;;;;;;;5052416;28;20017;-62
2023/09/07 06:59:07;;;;;;;6.87;2.70;;;;;;;;;;5051984;28;20025;-63
2023/09/07 07:01:33;;;;;;;3.73;2.47;;;;;;;;;;5051302;28;20024;-63
2023/09/07 07:04:00;;;;;;;14.10;2.70;;;;;;;;;;5046812;28;20025;-63
2023/09/07 07:06:27;;;;;;;4.47;2.60;;;;;;;;;;5047164;28;20468;-62
2023/09/07 07:08:53;;;;;;;5.90;2.73;;;;;;;;;;5029054;28;20033;-63
2023/09/07 07:11:20;;;;;;;3.97;2.57;;;;;;;;;;5047093;28;20021;-63
2023/09/07 07:13:47;;;;;;;2.83;1.70;;;;;;;;;;5052253;28;20100;-63
2023/09/07 07:16:14;;;;;;;3.27;1.90;;;;;;;;;;5052292;28;20023;-62
2023/09/07 07:18:40;;;;;;;5.83;1.73;;;;;;;;;;5033987;28;20047;-63
2023/09/07 07:21:08;;;;;;;3.57;2.43;;;;;;;;;;5052297;28;20021;-63
2023/09/07 07:23:36;;;;;;;4.37;1.73;;;;;;;;;;5050938;28;20456;-63
2023/09/07 07:26:03;;;;;;;2.83;2.13;;;;;;;;;;5046979;28;20104;-62
2023/09/07 07:28:30;;;;;;;3.60;2.23;;;;;;;;;;5046993;28;20082;-63
2023/09/07 07:30:56;;;;;;;2.67;1.97;;;;;;;;;;5046980;28;20036;-63
2023/09/07 07:33:23;;;;;;;3.00;2.13;;;;;;;;;;5046831;28;20049;-63
2023/09/07 07:35:50;;;;;;;3.87;2.43;;;;;;;;;;5051673;28;20531;-63
2023/09/07 07:38:16;;;;;;;3.93;2.30;;;;;;;;;;5052107;28;20032;-63
2023/09/07 07:40:44;;;;;;;3.23;2.30;;;;;;;;;;5052078;28;20057;-63
2023/09/07 07:43:13;;;;;;;1.40;1.23;;;;;;;;;;5051760;28;20028;-63
2023/09/07 07:45:39;;;;;;;4.60;3.27;;;;;;;;;;5051201;28;20021;-63
2023/09/07 07:48:07;;;;;;;4.73;3.00;;;;;;;;;;5046017;28;20041;-63
2023/09/07 07:50:38;;;;;;;1.93;1.70;;;;;;;;;;5046771;28;20474;-63
2023/09/07 07:53:06;;;;;;;2.73;2.07;;;;;;;;;;5046831;28;20056;-63
2023/09/07 07:55:40;;;;;;;7.33;1.90;;;;;;;;;;5046974;28;20017;-63
2023/09/07 07:58:10;;;;;;;3.58;2.83;;;;;;;;;;5051465;28;20124;-63
2023/09/07 08:00:38;;;;;;;5.97;3.20;;;;;;;;;;5051362;28;20079;-63
2023/09/07 08:03:06;;;;;;;5.97;2.77;;;;;;;;;;5055677;28;20109;-62
2023/09/07 08:05:33;;;;;;;5.90;2.70;;;;;;;;;;5055647;28;20025;-63
2023/09/07 08:08:01;;;;;;;5.83;3.20;;;;;;;;;;5054296;28;20048;-62
2023/09/07 08:10:28;;;;;;;34.40;3.30;;;;;;;;;;5050136;28;20364;-63
2023/09/07 08:12:55;;;;;;;7.20;3.47;;;;;;;;;;5050311;28;20051;-63
2023/09/07 08:15:22;;;;;;;5.33;2.80;;;;;;;;;;5049878;28;20020;-63
2023/09/07 08:17:49;;;;;;;3.00;2.23;;;;;;;;;;5050486;28;20055;-62
2023/09/07 08:20:16;;;;;;;4.27;2.23;;;;;;;;;;5055221;28;20472;-63
2023/09/07 08:22:44;;;;;;;3.70;1.93;;;;;;;;;;5054870;28;20028;-62
2023/09/07 08:25:13;;;;;;;4.40;2.87;;;;;;;;;;5055062;28;20021;-62
2023/09/07 08:27:44;;;;;;;3.63;2.27;;;;;;;;;;5054994;28;20033;-63
2023/09/07 08:30:12;;;;;;;4.77;3.27;;;;;;;;;;5053981;28;20025;-62
2023/09/07 08:32:39;;;;;;;4.20;2.87;;;;;;;;;;5049790;28;20470;-62
2023/09/07 08:35:07;;;;;;;5.63;3.13;;;;;;;;;;5049636;28;20100;-64
2023/09/07 08:37:34;;;;;;;3.83;2.90;;;;;;;;;;5049856;28;20032;-62
2023/09/07 08:40:03;;;;;;;4.70;2.43;;;;;;;;;;5050452;28;20025;-62
2023/09/07 08:42:29;;;;;;;12.13;3.50;;;;;;;;;;5054457;28;20028;-62
2023/09/07 08:44:58;;;;;;;2.23;1.83;;;;;;;;;;5054441;28;20027;-63
2023/09/07 08:47:25;;;;;;;6.33;2.77;;;;;;;;;;5054721;28;20035;-63
2023/09/07 08:49:52;;;;;;;4.30;2.37;;;;;;;;;;5054718;28;20098;-62
2023/09/07 08:52:20;;;;;;;13.33;2.47;;;;;;;;;;5053220;28;20307;-62
2023/09/07 08:54:47;;;;;;;3.00;1.97;;;;;;;;;;5049535;28;20025;-62
2023/09/07 08:57:14;;;;;;;2.90;2.07;;;;;;;;;;5048815;28;20476;-63
2023/09/07 08:59:41;;;;;;;6.70;2.97;;;;;;;;;;5049514;28;20469;-62
2023/09/07 09:02:10;;;;;;;7.27;3.20;;;;;;;;;;5050310;28;20158;-63
2023/09/07 09:04:39;;;;;;;3.70;2.37;;;;;;;;;;5054317;28;20021;-63
2023/09/07 09:07:05;;;;;;;8.23;2.17;;;;;;;;;;5054214;28;20107;-62
2023/09/07 09:09:32;;;;;;;3.80;2.63;;;;;;;;;;5053667;28;20512;-62
2023/09/07 09:12:11;;;;;;;2.03;1.60;;;;;;;;;;5053649;28;20025;-63
2023/09/07 09:14:38;;;;;;;13.67;2.07;;;;;;;;;;5052067;28;20029;-62
2023/09/07 09:17:04;;;;;;;3.03;2.07;;;;;;;;;;5049055;28;20376;-63
2023/09/07 09:19:34;;;;;;;4.43;2.33;;;;;;;;;;5049085;28;20025;-63
2023/09/07 09:22:03;;;;;;;3.33;2.17;;;;;;;;;;5048184;28;20025;-63
2023/09/07 09:24:33;;;;;;;2.40;1.87;;;;;;;;;;5050081;28;20029;-63
2023/09/07 09:27:00;;;;;;;2.07;1.60;;;;;;;;;;5054060;28;20032;-62
2023/09/07 09:29:27;;;;;;;2.93;1.83;;;;;;;;;;5053938;28;20056;-62
2023/09/07 09:31:54;;;;;;;5.20;2.67;;;;;;;;;;5053857;28;20024;-63
2023/09/07 09:34:21;;;;;;;3.13;1.87;;;;;;;;;;5053497;28;20029;-62
2023/09/07 09:36:48;;;;;;;4.53;2.87;;;;;;;;;;5051628;28;20085;-63
2023/09/07 09:39:25;;;;;;;3.00;2.00;;;;;;;;;;5048330;28;20045;-62
2023/09/07 09:41:53;;;;;;;2.57;1.97;;;;;;;;;;5048506;28;20036;-62
2023/09/07 09:44:25;;;;;;;2.77;1.43;;;;;;;;;;5048716;28;20128;-63
2023/09/07 09:46:54;;;;;;;4.20;1.87;;;;;;;;;;5049617;28;20068;-63
2023/09/07 09:49:21;;;;;;;2.33;1.73;;;;;;;;;;5053589;28;20047;-62
2023/09/07 09:51:50;;;;;;;3.53;1.63;;;;;;;;;;5053551;28;20545;-62
2023/09/07 09:54:17;;;;;;;3.10;2.00;;;;;;;;;;5053432;28;20025;-63
2023/09/07 09:56:44;;;;;;;3.37;2.47;;;;;;;;;;5053157;28;20025;-62
2023/09/07 09:59:12;;;;;;;2.93;2.13;;;;;;;;;;5050767;28;20494;-62
2023/09/07 10:01:41;;;;;;;3.20;2.10;;;;;;;;;;5048009;28;20021;-63
2023/09/07 10:04:09;;;;;;;5.20;2.90;;;;;;;;;;5048222;28;20110;-62
2023/09/07 10:06:36;;;;;;;2.60;1.90;;;;;;;;;;5048090;28;20027;-63
2023/09/07 10:09:06;;;;;;;5.13;2.27;;;;;;;;;;5049662;28;20384;-63
2023/09/07 10:11:34;;;;;;;6.23;2.27;;;;;;;;;;5053229;28;20484;-62
2023/09/07 10:14:08;;;;;;;5.77;2.47;;;;;;;;;;5053151;28;20388;-62
2023/09/07 10:16:44;;;;;;;3.13;1.70;;;;;;;;;;5052999;28;20052;-62
2023/09/07 10:19:18;;;;;;;3.17;2.27;;;;;;;;;;5052696;28;20021;-62
2023/09/07 10:21:45;;;;;;;1.90;1.60;;;;;;;;;;5049659;28;20021;-63
2023/09/07 10:24:11;;;;;;;3.30;2.00;;;;;;;;;;5047416;28;20021;-62
2023/09/07 10:26:38;;;;;;;4.27;2.53;;;;;;;;;;5047260;28;20049;-62
2023/09/07 10:29:05;;;;;;;2.93;2.07;;;;;;;;;;5047871;28;20040;-62
2023/09/07 10:31:32;;;;;;;2.83;2.30;;;;;;;;;;5050099;28;20414;-63
2023/09/07 10:34:09;;;;;;;4.30;2.37;;;;;;;;;;5052533;28;20063;-63
2023/09/07 10:36:37;;;;;;;7.00;2.17;;;;;;;;;;5052881;28;20025;-62
2023/09/07 10:39:07;;;;;;;3.80;1.67;;;;;;;;;;5052291;28;20104;-62
2023/09/07 10:41:42;;;;;;;2.23;1.57;;;;;;;;;;5052656;28;20036;-62
2023/09/07 10:44:10;;;;;;;2.55;1.88;;;;;;;;;;5048235;28;20361;-62
2023/09/07 10:46:39;;;;;;;2.00;1.57;;;;;;;;;;5047657;28;20419;-62
2023/09/07 10:49:09;;;;;;;5.83;2.63;;;;;;;;;;5047590;28;20037;-62
2023/09/07 10:51:41;;;;;;;3.03;2.03;;;;;;;;;;5047309;28;20151;-62
2023/09/07 10:54:18;;;;;;;2.40;1.57;;;;;;;;;;5051234;28;20091;-62
2023/09/07 10:56:45;;;;;;;7.07;2.80;;;;;;;;;;5052068;28;20040;-62
2023/09/07 10:59:13;;;;;;;5.60;1.67;;;;;;;;;;5052251;28;20116;-62
2023/09/07 11:01:40;;;;;;;1.40;1.00;;;;;;;;;;5051973;28;20502;-62
2023/09/07 11:04:08;;;;;;;1.87;1.43;;;;;;;;;;5052538;28;20021;-62
2023/09/07 11:06:35;;;;;;;4.70;2.17;;;;;;;;;;5047348;28;20506;-62
2023/09/07 11:09:08;;;;;;;1.23;1.10;;;;;;;;;;5046901;28;20435;-63
2023/09/07 11:11:38;;;;;;;1.17;0.90;;;;;;;;;;5047482;28;20060;-62
2023/09/07 11:14:05;;;;;;;1.23;0.73;;;;;;;;;;5046881;28;20052;-62
2023/09/07 11:16:34;;;;;;;1.40;1.13;;;;;;;;;;5051534;28;20043;-62
2023/09/07 11:19:04;;;;;;;1.53;0.93;;;;;;;;;;5051891;28;20036;-62
2023/09/07 11:21:32;;;;;;;2.20;1.37;;;;;;;;;;5052321;28;20028;-62
2023/09/07 11:23:59;;;;;;;2.60;1.30;;;;;;;;;;5051901;28;20393;-62
2023/09/07 11:26:26;;;;;;;0.70;0.57;;;;;;;;;;5052365;28;20075;-62
2023/09/07 11:28:53;;;;;;;0.70;0.50;;;;;;;;;;5046532;28;20502;-62
2023/09/07 11:31:23;;;;;;;1.43;0.97;;;;;;;;;;5028742;28;20025;-62
2023/09/07 11:33:50;;;;;;;1.27;0.70;;;;;;;;;;5047057;28;20024;-62
2023/09/07 11:36:16;;;;;;;1.80;0.97;;;;;;;;;;5048377;28;20052;-62
2023/09/07 11:38:45;;;;;;;0.50;0.50;;;;;;;;;;5055572;28;20025;-62
2023/09/07 11:41:11;;;;;;;1.13;0.83;;;;;;;;;;5055908;28;20021;-62
2023/09/07 11:43:39;;;;;;;1.27;0.90;;;;;;;;;;5055157;28;20021;-62
2023/09/07 11:46:06;;;;;;;1.23;0.80;;;;;;;;;;5056001;28;20029;-62
2023/09/07 11:48:34;;;;;;;2.10;0.70;;;;;;;;;;5055807;28;20031;-62
2023/09/07 11:51:01;;;;;;;2.13;1.00;;;;;;;;;;5032809;28;20025;-62
2023/09/07 11:53:28;;;;;;;2.90;0.77;;;;;;;;;;5050565;28;20032;-63
2023/09/07 11:55:57;;;;;;;1.80;0.87;;;;;;;;;;5050677;28;20024;-62
2023/09/07 11:58:26;;;;;;;1.10;0.87;;;;;;;;;;5050080;28;20082;-62
2023/09/07 12:00:53;;;;;;;1.20;0.80;;;;;;;;;;5055399;28;20539;-62
2023/09/07 12:03:20;;;;;;;1.07;0.70;;;;;;;;;;5055610;28;20098;-62
2023/09/07 12:05:47;;;;;;;1.37;0.90;;;;;;;;;;5055183;28;20036;-63
2023/09/07 12:08:14;;;;;;;4.70;1.63;;;;;;;;;;5055465;28;20032;-62
2023/09/07 12:10:41;;;;;;;1.17;0.80;;;;;;;;;;5055368;28;20025;-62
2023/09/07 12:13:07;;;;;;;1.87;1.17;;;;;;;;;;5050178;28;20021;-62
2023/09/07 12:15:35;;;;;;;1.07;0.60;;;;;;;;;;5050135;28;20092;-62
2023/09/07 12:18:02;;;;;;;2.03;1.17;;;;;;;;;;5049911;28;20064;-62
2023/09/07 12:20:28;;;;;;;0.93;0.80;;;;;;;;;;5050162;28;20021;-62
2023/09/07 12:22:55;;;;;;;1.67;1.10;;;;;;;;;;5054764;28;20029;-62
2023/09/07 12:25:22;;;;;;;0.73;0.63;;;;;;;;;;5055192;28;20423;-62
2023/09/07 12:27:50;;;;;;;1.53;1.13;;;;;;;;;;5054686;28;20037;-62
2023/09/07 12:30:18;;;;;;;2.27;1.20;;;;;;;;;;5054774;28;20127;-62
2023/09/07 12:32:45;;;;;;;1.87;1.00;;;;;;;;;;5055022;28;20029;-62
2023/09/07 12:35:11;;;;;;;5.10;1.23;;;;;;;;;;5049989;28;20199;-62
2023/09/07 12:37:38;;;;;;;1.07;0.63;;;;;;;;;;5031927;28;20033;-62
2023/09/07 12:40:12;;;;;;;2.23;1.10;;;;;;;;;;5049935;28;20064;-63
2023/09/07 12:42:48;;;;;;;3.60;1.40;;;;;;;;;;5049794;28;20530;-62
2023/09/07 12:45:14;;;;;;;1.77;0.93;;;;;;;;;;5054626;28;20258;-62
2023/09/07 12:47:41;;;;;;;1.37;0.80;;;;;;;;;;5053785;28;20033;-63
2023/09/07 12:50:08;;;;;;;2.07;0.70;;;;;;;;;;5054600;28;20388;-62
2023/09/07 12:52:38;;;;;;;1.50;0.80;;;;;;;;;;5054582;28;20360;-62
2023/09/07 12:55:05;;;;;;;0.50;0.50;;;;;;;;;;5053877;28;20051;-62
2023/09/07 12:57:32;;;;;;;1.50;1.10;;;;;;;;;;5049456;28;20039;-62
2023/09/07 12:59:59;;;;;;;0.83;0.60;;;;;;;;;;5049571;28;20052;-62
2023/09/07 13:02:26;;;;;;;1.30;0.87;;;;;;;;;;5049521;28;20089;-62
2023/09/07 13:04:55;;;;;;;3.67;1.40;;;;;;;;;;5049380;28;20025;-62
2023/09/07 13:07:22;;;;;;;1.37;1.00;;;;;;;;;;5053486;28;20464;-62
2023/09/07 13:09:49;;;;;;;0.63;0.60;;;;;;;;;;5054430;28;20029;-62
2023/09/07 13:12:16;;;;;;;0.73;0.57;;;;;;;;;;5054344;28;20151;-62
2023/09/07 13:14:43;;;;;;;1.20;0.83;;;;;;;;;;5054246;28;20143;-63
2023/09/07 13:17:16;;;;;;;1.23;0.93;;;;;;;;;;5053773;28;20032;-62
2023/09/07 13:19:43;;;;;;;1.53;1.03;;;;;;;;;;5048769;28;20491;-62
2023/09/07 13:22:10;;;;;;;0.90;0.70;;;;;;;;;;5048675;28;20021;-63
2023/09/07 13:24:37;;;;;;;9.00;1.03;;;;;;;;;;5048956;28;20042;-62
2023/09/07 13:27:04;;;;;;;2.40;1.27;;;;;;;;;;5049011;28;20028;-62
2023/09/07 13:29:31;;;;;;;1.63;1.30;;;;;;;;;;5053993;28;20035;-62
2023/09/07 13:31:58;;;;;;;0.67;0.63;;;;;;;;;;5053539;28;20021;-63
2023/09/07 13:34:25;;;;;;;0.80;0.70;;;;;;;;;;5053887;28;20020;-62
2023/09/07 13:36:52;;;;;;;2.87;1.77;;;;;;;;;;5053574;28;20021;-62
2023/09/07 13:39:18;;;;;;;2.80;1.57;;;;;;;;;;5053166;28;20032;-62
2023/09/07 13:41:45;;;;;;;2.37;1.50;;;;;;;;;;5048321;28;20033;-62
2023/09/07 13:44:12;;;;;;;4.47;2.03;;;;;;;;;;5048606;28;20104;-63
2023/09/07 13:46:39;;;;;;;1.53;1.30;;;;;;;;;;5048633;28;20036;-62
2023/09/07 13:49:05;;;;;;;3.23;1.73;;;;;;;;;;5048567;28;20091;-62
2023/09/07 13:51:37;;;;;;;2.67;1.90;;;;;;;;;;5053162;28;20480;-62
2023/09/07 13:54:07;;;;;;;1.50;1.10;;;;;;;;;;5053150;28;20119;-62
2023/09/07 13:56:36;;;;;;;2.40;1.57;;;;;;;;;;5053333;28;20021;-62
2023/09/07 13:59:02;;;;;;;2.10;1.13;;;;;;;;;;5053225;28;20033;-62
2023/09/07 14:01:29;;;;;;;3.90;2.30;;;;;;;;;;5052054;28;20036;-62
2023/09/07 14:03:56;;;;;;;2.20;1.57;;;;;;;;;;5048010;28;20028;-62
2023/09/07 14:06:23;;;;;;;18.63;1.63;;;;;;;;;;5048303;28;20107;-62
2023/09/07 14:08:51;;;;;;;1.90;1.60;;;;;;;;;;5048203;28;20475;-63
2023/09/07 14:11:18;;;;;;;2.20;1.43;;;;;;;;;;5048139;28;20029;-63
2023/09/07 14:13:44;;;;;;;2.03;1.53;;;;;;;;;;5052929;28;20122;-62
2023/09/07 14:16:11;;;;;;;4.27;1.90;;;;;;;;;;5053018;28;20025;-62
2023/09/07 14:18:38;;;;;;;1.93;1.30;;;;;;;;;;5052786;28;20032;-63
2023/09/07 14:21:04;;;;;;;1.57;1.13;;;;;;;;;;5052333;28;20195;-62
2023/09/07 14:23:31;;;;;;;2.23;1.53;;;;;;;;;;5052477;28;20100;-62
2023/09/07 14:25:58;;;;;;;1.40;1.20;;;;;;;;;;5047777;28;20021;-63
2023/09/07 14:28:25;;;;;;;1.30;0.87;;;;;;;;;;5029758;28;20106;-63
2023/09/07 14:30:53;;;;;;;4.17;1.07;;;;;;;;;;5047088;28;20064;-62
2023/09/07 14:33:20;;;;;;;1.83;1.23;;;;;;;;;;5047458;28;20029;-63
2023/09/07 14:35:47;;;;;;;2.87;1.77;;;;;;;;;;5052806;28;20472;-63
2023/09/07 14:38:14;;;;;;;1.83;1.53;;;;;;;;;;5052773;28;20023;-63
2023/09/07 14:40:42;;;;;;;3.23;1.70;;;;;;;;;;5052382;28;20028;-63
2023/09/07 14:43:10;;;;;;;3.10;1.87;;;;;;;;;;5052732;28;20023;-63
2023/09/07 14:45:37;;;;;;;2.40;1.50;;;;;;;;;;5051948;28;20029;-63